sensor_id;sensor_type;location;lat;lon;timestamp;P1;durP1;ratioP1;P2;durP2;ratioP2
8042;SDS011;4064;48.132;11.366;2024-03-22T00:00:38;26.30;;;19.60;;
8042;SDS011;4064;48.132;11.366;2024-03-22T00:03:04;25.43;;;19.10;;
8042;SDS011;4064;48.132;11.366;2024-03-22T00:05:30;26.20;;;18.90;;
8042;SDS011;4064;48.132;11.366;2024-03-22T00:07:55;24.23;;;18.03;;
8042;SDS011;4064;48.132;11.366;2024-03-22T00:10:21;28.20;;;18.83;;
8042;SDS011;4064;48.132;11.366;2024-03-22T00:12:46;24.43;;;18.93;;
8042;SDS011;4064;48.132;11.366;2024-03-22T00:15:14;29.60;;;20.17;;
8042;SDS011;4064;48.132;11.366;2024-03-22T00:17:40;24.63;;;19.37;;
8042;SDS011;4064;48.132;11.366;2024-03-22T00:20:06;29.13;;;19.87;;
8042;SDS011;4064;48.132;11.366;2024-03-22T00:22:32;27.58;;;19.70;;
8042;SDS011;4064;48.132;11.366;2024-03-22T00:24:57;32.70;;;20.60;;
8042;SDS011;4064;48.132;11.366;2024-03-22T00:27:23;31.90;;;19.30;;
8042;SDS011;4064;48.132;11.366;2024-03-22T00:29:48;27.80;;;19.93;;
8042;SDS011;4064;48.132;11.366;2024-03-22T00:32:14;28.17;;;20.03;;
8042;SDS011;4064;48.132;11.366;2024-03-22T00:34:40;26.15;;;18.83;;
8042;SDS011;4064;48.132;11.366;2024-03-22T00:37:06;27.13;;;19.57;;
8042;SDS011;4064;48.132;11.366;2024-03-22T00:39:31;26.67;;;19.50;;
8042;SDS011;4064;48.132;11.366;2024-03-22T00:41:57;25.63;;;20.80;;
8042;SDS011;4064;48.132;11.366;2024-03-22T00:44:23;22.80;;;17.77;;
8042;SDS011;4064;48.132;11.366;2024-03-22T00:46:48;26.37;;;19.27;;
8042;SDS011;4064;48.132;11.366;2024-03-22T00:49:14;29.07;;;20.20;;
8042;SDS011;4064;48.132;11.366;2024-03-22T00:51:39;22.93;;;18.70;;
8042;SDS011;4064;48.132;11.366;2024-03-22T00:54:08;24.60;;;17.75;;
8042;SDS011;4064;48.132;11.366;2024-03-22T00:56:33;25.50;;;19.00;;
8042;SDS011;4064;48.132;11.366;2024-03-22T00:58:59;28.20;;;22.70;;
8042;SDS011;4064;48.132;11.366;2024-03-22T01:01:24;30.50;;;20.40;;
8042;SDS011;4064;48.132;11.366;2024-03-22T01:03:50;25.93;;;19.37;;
8042;SDS011;4064;48.132;11.366;2024-03-22T01:06:16;28.87;;;20.37;;
8042;SDS011;4064;48.132;11.366;2024-03-22T01:08:42;28.48;;;18.48;;
8042;SDS011;4064;48.132;11.366;2024-03-22T01:11:07;25.60;;;18.87;;
8042;SDS011;4064;48.132;11.366;2024-03-22T01:13:33;26.80;;;19.93;;
8042;SDS011;4064;48.132;11.366;2024-03-22T01:15:58;23.80;;;17.97;;
8042;SDS011;4064;48.132;11.366;2024-03-22T01:18:24;26.87;;;20.67;;
8042;SDS011;4064;48.132;11.366;2024-03-22T01:20:50;28.37;;;18.90;;
8042;SDS011;4064;48.132;11.366;2024-03-22T01:23:15;31.97;;;19.10;;
8042;SDS011;4064;48.132;11.366;2024-03-22T01:25:41;24.07;;;18.57;;
8042;SDS011;4064;48.132;11.366;2024-03-22T01:28:06;24.50;;;18.20;;
8042;SDS011;4064;48.132;11.366;2024-03-22T01:30:32;30.97;;;19.50;;
8042;SDS011;4064;48.132;11.366;2024-03-22T01:32:59;27.80;;;20.33;;
8042;SDS011;4064;48.132;11.366;2024-03-22T01:35:24;27.80;;;19.77;;
8042;SDS011;4064;48.132;11.366;2024-03-22T01:37:50;30.63;;;20.57;;
8042;SDS011;4064;48.132;11.366;2024-03-22T01:40:16;26.40;;;18.10;;
8042;SDS011;4064;48.132;11.366;2024-03-22T01:42:41;27.50;;;18.60;;
8042;SDS011;4064;48.132;11.366;2024-03-22T01:45:07;28.13;;;18.53;;
8042;SDS011;4064;48.132;11.366;2024-03-22T01:47:33;30.98;;;21.40;;
8042;SDS011;4064;48.132;11.366;2024-03-22T01:49:59;21.57;;;15.90;;
8042;SDS011;4064;48.132;11.366;2024-03-22T01:52:26;22.00;;;17.30;;
8042;SDS011;4064;48.132;11.366;2024-03-22T01:54:52;24.60;;;18.40;;
8042;SDS011;4064;48.132;11.366;2024-03-22T01:57:18;23.53;;;18.37;;
8042;SDS011;4064;48.132;11.366;2024-03-22T01:59:44;25.00;;;19.15;;
8042;SDS011;4064;48.132;11.366;2024-03-22T02:02:13;28.42;;;17.10;;
8042;SDS011;4064;48.132;11.366;2024-03-22T02:04:38;25.70;;;18.90;;
8042;SDS011;4064;48.132;11.366;2024-03-22T02:07:04;24.33;;;15.20;;
8042;SDS011;4064;48.132;11.366;2024-03-22T02:09:30;23.73;;;18.00;;
8042;SDS011;4064;48.132;11.366;2024-03-22T02:11:55;22.30;;;16.93;;
8042;SDS011;4064;48.132;11.366;2024-03-22T02:14:21;26.47;;;17.20;;
8042;SDS011;4064;48.132;11.366;2024-03-22T02:16:46;23.33;;;17.70;;
8042;SDS011;4064;48.132;11.366;2024-03-22T02:19:12;21.03;;;16.77;;
8042;SDS011;4064;48.132;11.366;2024-03-22T02:21:38;18.87;;;16.13;;
8042;SDS011;4064;48.132;11.366;2024-03-22T02:24:03;22.97;;;15.90;;
8042;SDS011;4064;48.132;11.366;2024-03-22T02:26:29;22.83;;;16.37;;
8042;SDS011;4064;48.132;11.366;2024-03-22T02:28:55;21.73;;;15.93;;
8042;SDS011;4064;48.132;11.366;2024-03-22T02:31:20;19.57;;;15.87;;
8042;SDS011;4064;48.132;11.366;2024-03-22T02:33:46;24.30;;;17.80;;
8042;SDS011;4064;48.132;11.366;2024-03-22T02:36:11;22.03;;;16.70;;
8042;SDS011;4064;48.132;11.366;2024-03-22T02:38:37;20.10;;;15.27;;
8042;SDS011;4064;48.132;11.366;2024-03-22T02:41:03;22.23;;;14.93;;
8042;SDS011;4064;48.132;11.366;2024-03-22T02:43:29;22.00;;;15.13;;
8042;SDS011;4064;48.132;11.366;2024-03-22T02:45:54;24.07;;;17.13;;
8042;SDS011;4064;48.132;11.366;2024-03-22T02:48:20;20.43;;;14.17;;
8042;SDS011;4064;48.132;11.366;2024-03-22T02:50:45;21.93;;;16.73;;
8042;SDS011;4064;48.132;11.366;2024-03-22T02:53:11;21.13;;;16.30;;
8042;SDS011;4064;48.132;11.366;2024-03-22T02:55:37;22.83;;;16.80;;
8042;SDS011;4064;48.132;11.366;2024-03-22T02:58:04;22.08;;;15.07;;
8042;SDS011;4064;48.132;11.366;2024-03-22T03:00:30;20.85;;;14.77;;
8042;SDS011;4064;48.132;11.366;2024-03-22T03:02:56;19.27;;;14.35;;
8042;SDS011;4064;48.132;11.366;2024-03-22T03:05:22;22.17;;;14.70;;
8042;SDS011;4064;48.132;11.366;2024-03-22T03:07:48;20.33;;;16.67;;
8042;SDS011;4064;48.132;11.366;2024-03-22T03:10:15;23.48;;;15.23;;
8042;SDS011;4064;48.132;11.366;2024-03-22T03:12:41;21.73;;;17.50;;
8042;SDS011;4064;48.132;11.366;2024-03-22T03:15:06;21.53;;;15.50;;
8042;SDS011;4064;48.132;11.366;2024-03-22T03:17:32;24.87;;;16.27;;
8042;SDS011;4064;48.132;11.366;2024-03-22T03:19:58;19.63;;;15.13;;
8042;SDS011;4064;48.132;11.366;2024-03-22T03:22:24;21.87;;;15.37;;
8042;SDS011;4064;48.132;11.366;2024-03-22T03:24:49;23.30;;;15.20;;
8042;SDS011;4064;48.132;11.366;2024-03-22T03:27:15;19.63;;;14.20;;
8042;SDS011;4064;48.132;11.366;2024-03-22T03:29:40;19.23;;;15.20;;
8042;SDS011;4064;48.132;11.366;2024-03-22T03:32:06;23.17;;;16.97;;
8042;SDS011;4064;48.132;11.366;2024-03-22T03:34:31;25.37;;;17.80;;
8042;SDS011;4064;48.132;11.366;2024-03-22T03:36:57;23.47;;;16.43;;
8042;SDS011;4064;48.132;11.366;2024-03-22T03:39:25;21.05;;;15.23;;
8042;SDS011;4064;48.132;11.366;2024-03-22T03:41:51;19.93;;;14.57;;
8042;SDS011;4064;48.132;11.366;2024-03-22T03:44:17;22.77;;;15.47;;
8042;SDS011;4064;48.132;11.366;2024-03-22T03:46:42;22.57;;;15.30;;
8042;SDS011;4064;48.132;11.366;2024-03-22T03:49:08;19.97;;;15.00;;
8042;SDS011;4064;48.132;11.366;2024-03-22T03:51:33;22.77;;;16.53;;
8042;SDS011;4064;48.132;11.366;2024-03-22T03:53:59;22.50;;;15.53;;
8042;SDS011;4064;48.132;11.366;2024-03-22T03:56:25;21.20;;;16.00;;
8042;SDS011;4064;48.132;11.366;2024-03-22T03:58:50;20.40;;;14.60;;
8042;SDS011;4064;48.132;11.366;2024-03-22T04:01:16;21.57;;;13.67;;
8042;SDS011;4064;48.132;11.366;2024-03-22T04:03:43;22.55;;;15.20;;
8042;SDS011;4064;48.132;11.366;2024-03-22T04:06:08;22.70;;;14.97;;
8042;SDS011;4064;48.132;11.366;2024-03-22T04:08:34;19.73;;;16.57;;
8042;SDS011;4064;48.132;11.366;2024-03-22T04:10:59;19.10;;;14.50;;
8042;SDS011;4064;48.132;11.366;2024-03-22T04:13:25;20.00;;;16.20;;
8042;SDS011;4064;48.132;11.366;2024-03-22T04:15:52;20.10;;;16.30;;
8042;SDS011;4064;48.132;11.366;2024-03-22T04:18:18;20.60;;;15.93;;
8042;SDS011;4064;48.132;11.366;2024-03-22T04:20:53;18.60;;;14.10;;
8042;SDS011;4064;48.132;11.366;2024-03-22T04:23:19;24.13;;;16.20;;
8042;SDS011;4064;48.132;11.366;2024-03-22T04:25:58;24.67;;;16.83;;
8042;SDS011;4064;48.132;11.366;2024-03-22T04:28:25;21.67;;;16.10;;
8042;SDS011;4064;48.132;11.366;2024-03-22T04:31:04;23.63;;;16.80;;
8042;SDS011;4064;48.132;11.366;2024-03-22T04:33:31;26.17;;;17.35;;
8042;SDS011;4064;48.132;11.366;2024-03-22T04:35:57;23.58;;;17.17;;
8042;SDS011;4064;48.132;11.366;2024-03-22T04:38:24;22.73;;;17.15;;
8042;SDS011;4064;48.132;11.366;2024-03-22T04:40:50;22.42;;;18.50;;
8042;SDS011;4064;48.132;11.366;2024-03-22T04:43:16;24.50;;;18.07;;
8042;SDS011;4064;48.132;11.366;2024-03-22T04:45:43;22.40;;;16.73;;
8042;SDS011;4064;48.132;11.366;2024-03-22T04:48:09;24.90;;;18.92;;
8042;SDS011;4064;48.132;11.366;2024-03-22T04:50:38;25.48;;;19.25;;
8042;SDS011;4064;48.132;11.366;2024-03-22T04:53:03;24.10;;;17.77;;
8042;SDS011;4064;48.132;11.366;2024-03-22T04:55:30;29.50;;;19.30;;
8042;SDS011;4064;48.132;11.366;2024-03-22T04:57:56;27.70;;;19.10;;
8042;SDS011;4064;48.132;11.366;2024-03-22T05:00:21;25.73;;;17.70;;
8042;SDS011;4064;48.132;11.366;2024-03-22T05:02:47;26.80;;;20.40;;
8042;SDS011;4064;48.132;11.366;2024-03-22T05:05:12;31.60;;;17.93;;
8042;SDS011;4064;48.132;11.366;2024-03-22T05:07:38;24.47;;;18.77;;
8042;SDS011;4064;48.132;11.366;2024-03-22T05:10:04;26.13;;;19.73;;
8042;SDS011;4064;48.132;11.366;2024-03-22T05:12:30;27.55;;;18.45;;
8042;SDS011;4064;48.132;11.366;2024-03-22T05:14:56;29.27;;;20.10;;
8042;SDS011;4064;48.132;11.366;2024-03-22T05:17:21;28.97;;;20.70;;
8042;SDS011;4064;48.132;11.366;2024-03-22T05:19:47;30.87;;;20.03;;
8042;SDS011;4064;48.132;11.366;2024-03-22T05:22:13;26.67;;;18.60;;
8042;SDS011;4064;48.132;11.366;2024-03-22T05:24:38;23.47;;;18.80;;
8042;SDS011;4064;48.132;11.366;2024-03-22T05:27:04;24.43;;;18.00;;
8042;SDS011;4064;48.132;11.366;2024-03-22T05:29:29;26.17;;;18.80;;
8042;SDS011;4064;48.132;11.366;2024-03-22T05:31:55;25.53;;;18.90;;
8042;SDS011;4064;48.132;11.366;2024-03-22T05:34:22;28.27;;;19.17;;
8042;SDS011;4064;48.132;11.366;2024-03-22T05:36:48;23.47;;;17.70;;
8042;SDS011;4064;48.132;11.366;2024-03-22T05:39:13;25.30;;;17.98;;
8042;SDS011;4064;48.132;11.366;2024-03-22T05:41:40;24.58;;;17.85;;
8042;SDS011;4064;48.132;11.366;2024-03-22T05:44:07;21.27;;;17.00;;
8042;SDS011;4064;48.132;11.366;2024-03-22T05:46:32;23.00;;;17.35;;
8042;SDS011;4064;48.132;11.366;2024-03-22T05:48:58;22.90;;;17.83;;
8042;SDS011;4064;48.132;11.366;2024-03-22T05:51:24;19.87;;;16.40;;
8042;SDS011;4064;48.132;11.366;2024-03-22T05:53:50;20.33;;;16.20;;
8042;SDS011;4064;48.132;11.366;2024-03-22T05:56:16;22.90;;;16.20;;
8042;SDS011;4064;48.132;11.366;2024-03-22T05:58:41;19.27;;;15.63;;
8042;SDS011;4064;48.132;11.366;2024-03-22T06:01:07;23.87;;;17.60;;
8042;SDS011;4064;48.132;11.366;2024-03-22T06:03:32;23.60;;;15.03;;
8042;SDS011;4064;48.132;11.366;2024-03-22T06:05:59;19.50;;;15.93;;
8042;SDS011;4064;48.132;11.366;2024-03-22T06:08:28;24.55;;;17.67;;
8042;SDS011;4064;48.132;11.366;2024-03-22T06:10:54;22.77;;;16.05;;
8042;SDS011;4064;48.132;11.366;2024-03-22T06:13:23;22.83;;;14.93;;
8042;SDS011;4064;48.132;11.366;2024-03-22T06:15:49;21.30;;;17.77;;
8042;SDS011;4064;48.132;11.366;2024-03-22T06:18:15;21.60;;;16.97;;
8042;SDS011;4064;48.132;11.366;2024-03-22T06:20:41;24.57;;;16.93;;
8042;SDS011;4064;48.132;11.366;2024-03-22T06:23:07;20.83;;;15.43;;
8042;SDS011;4064;48.132;11.366;2024-03-22T06:25:33;19.97;;;15.97;;
8042;SDS011;4064;48.132;11.366;2024-03-22T06:27:59;21.80;;;16.87;;
8042;SDS011;4064;48.132;11.366;2024-03-22T06:30:24;23.17;;;17.40;;
8042;SDS011;4064;48.132;11.366;2024-03-22T06:32:50;17.30;;;13.40;;
8042;SDS011;4064;48.132;11.366;2024-03-22T06:35:16;15.60;;;11.57;;
8042;SDS011;4064;48.132;11.366;2024-03-22T06:37:41;13.00;;;10.83;;
8042;SDS011;4064;48.132;11.366;2024-03-22T06:40:07;13.50;;;10.43;;
8042;SDS011;4064;48.132;11.366;2024-03-22T06:42:33;13.60;;;9.40;;
8042;SDS011;4064;48.132;11.366;2024-03-22T06:44:58;11.90;;;9.67;;
8042;SDS011;4064;48.132;11.366;2024-03-22T06:47:24;9.83;;;8.67;;
8042;SDS011;4064;48.132;11.366;2024-03-22T06:49:49;9.80;;;8.77;;
8042;SDS011;4064;48.132;11.366;2024-03-22T06:52:15;10.03;;;9.03;;
8042;SDS011;4064;48.132;11.366;2024-03-22T06:54:43;9.87;;;8.87;;
8042;SDS011;4064;48.132;11.366;2024-03-22T06:57:08;9.73;;;8.73;;
8042;SDS011;4064;48.132;11.366;2024-03-22T06:59:34;10.00;;;9.00;;
8042;SDS011;4064;48.132;11.366;2024-03-22T07:02:00;9.93;;;8.80;;
8042;SDS011;4064;48.132;11.366;2024-03-22T07:04:25;8.83;;;7.97;;
8042;SDS011;4064;48.132;11.366;2024-03-22T07:06:51;11.13;;;9.83;;
8042;SDS011;4064;48.132;11.366;2024-03-22T07:09:16;13.67;;;8.63;;
8042;SDS011;4064;48.132;11.366;2024-03-22T07:11:42;9.63;;;8.73;;
8042;SDS011;4064;48.132;11.366;2024-03-22T07:14:08;12.10;;;9.00;;
8042;SDS011;4064;48.132;11.366;2024-03-22T07:16:33;10.50;;;9.43;;
8042;SDS011;4064;48.132;11.366;2024-03-22T07:18:59;9.63;;;8.43;;
8042;SDS011;4064;48.132;11.366;2024-03-22T07:21:24;10.40;;;9.20;;
8042;SDS011;4064;48.132;11.366;2024-03-22T07:23:50;12.90;;;9.83;;
8042;SDS011;4064;48.132;11.366;2024-03-22T07:26:16;9.87;;;8.97;;
8042;SDS011;4064;48.132;11.366;2024-03-22T07:28:41;8.80;;;8.00;;
8042;SDS011;4064;48.132;11.366;2024-03-22T07:31:07;11.77;;;8.93;;
8042;SDS011;4064;48.132;11.366;2024-03-22T07:33:33;10.93;;;9.13;;
8042;SDS011;4064;48.132;11.366;2024-03-22T07:36:02;8.87;;;7.97;;
8042;SDS011;4064;48.132;11.366;2024-03-22T07:38:28;11.47;;;8.70;;
8042;SDS011;4064;48.132;11.366;2024-03-22T07:40:53;8.93;;;8.03;;
8042;SDS011;4064;48.132;11.366;2024-03-22T07:43:19;9.70;;;8.70;;
8042;SDS011;4064;48.132;11.366;2024-03-22T07:45:45;9.27;;;8.47;;
8042;SDS011;4064;48.132;11.366;2024-03-22T07:48:10;8.93;;;8.10;;
8042;SDS011;4064;48.132;11.366;2024-03-22T07:50:36;8.17;;;7.37;;
8042;SDS011;4064;48.132;11.366;2024-03-22T07:53:02;8.10;;;7.40;;
8042;SDS011;4064;48.132;11.366;2024-03-22T07:55:27;8.97;;;8.07;;
8042;SDS011;4064;48.132;11.366;2024-03-22T07:57:53;8.40;;;7.37;;
8042;SDS011;4064;48.132;11.366;2024-03-22T08:00:19;7.33;;;6.53;;
8042;SDS011;4064;48.132;11.366;2024-03-22T08:02:44;8.43;;;6.30;;
8042;SDS011;4064;48.132;11.366;2024-03-22T08:05:10;6.90;;;6.30;;
8042;SDS011;4064;48.132;11.366;2024-03-22T08:07:36;6.60;;;5.50;;
8042;SDS011;4064;48.132;11.366;2024-03-22T08:10:02;6.50;;;6.00;;
8042;SDS011;4064;48.132;11.366;2024-03-22T08:12:29;5.90;;;5.40;;
8042;SDS011;4064;48.132;11.366;2024-03-22T08:14:55;6.83;;;6.13;;
8042;SDS011;4064;48.132;11.366;2024-03-22T08:17:20;9.77;;;6.40;;
8042;SDS011;4064;48.132;11.366;2024-03-22T08:19:46;5.70;;;5.10;;
8042;SDS011;4064;48.132;11.366;2024-03-22T08:22:12;7.33;;;5.23;;
8042;SDS011;4064;48.132;11.366;2024-03-22T08:24:38;5.00;;;4.53;;
8042;SDS011;4064;48.132;11.366;2024-03-22T08:27:03;6.03;;;5.20;;
8042;SDS011;4064;48.132;11.366;2024-03-22T08:29:29;4.50;;;3.97;;
8042;SDS011;4064;48.132;11.366;2024-03-22T08:31:54;4.50;;;4.10;;
8042;SDS011;4064;48.132;11.366;2024-03-22T08:34:20;6.37;;;4.23;;
8042;SDS011;4064;48.132;11.366;2024-03-22T08:36:47;4.90;;;4.07;;
8042;SDS011;4064;48.132;11.366;2024-03-22T08:39:12;4.97;;;4.33;;
8042;SDS011;4064;48.132;11.366;2024-03-22T08:41:38;4.33;;;3.97;;
8042;SDS011;4064;48.132;11.366;2024-03-22T08:44:04;4.87;;;4.47;;
8042;SDS011;4064;48.132;11.366;2024-03-22T08:46:29;6.60;;;4.77;;
8042;SDS011;4064;48.132;11.366;2024-03-22T08:48:57;4.33;;;3.93;;
8042;SDS011;4064;48.132;11.366;2024-03-22T08:51:22;5.13;;;4.70;;
8042;SDS011;4064;48.132;11.366;2024-03-22T08:53:48;4.50;;;4.10;;
8042;SDS011;4064;48.132;11.366;2024-03-22T08:56:13;4.97;;;4.47;;
8042;SDS011;4064;48.132;11.366;2024-03-22T08:58:39;6.73;;;4.50;;
8042;SDS011;4064;48.132;11.366;2024-03-22T09:01:05;5.53;;;4.90;;
8042;SDS011;4064;48.132;11.366;2024-03-22T09:03:31;6.10;;;4.60;;
8042;SDS011;4064;48.132;11.366;2024-03-22T09:05:57;4.87;;;4.47;;
8042;SDS011;4064;48.132;11.366;2024-03-22T09:08:22;4.53;;;4.13;;
8042;SDS011;4064;48.132;11.366;2024-03-22T09:10:48;6.50;;;5.83;;
8042;SDS011;4064;48.132;11.366;2024-03-22T09:13:14;4.90;;;4.50;;
8042;SDS011;4064;48.132;11.366;2024-03-22T09:15:39;4.97;;;4.27;;
8042;SDS011;4064;48.132;11.366;2024-03-22T09:18:05;4.50;;;4.10;;
8042;SDS011;4064;48.132;11.366;2024-03-22T09:20:31;4.90;;;4.50;;
8042;SDS011;4064;48.132;11.366;2024-03-22T09:22:57;5.83;;;4.00;;
8042;SDS011;4064;48.132;11.366;2024-03-22T09:25:26;5.20;;;4.80;;
8042;SDS011;4064;48.132;11.366;2024-03-22T09:27:52;4.10;;;3.70;;
8042;SDS011;4064;48.132;11.366;2024-03-22T09:30:18;7.97;;;5.50;;
8042;SDS011;4064;48.132;11.366;2024-03-22T09:32:44;5.40;;;4.90;;
8042;SDS011;4064;48.132;11.366;2024-03-22T09:35:09;5.90;;;5.37;;
8042;SDS011;4064;48.132;11.366;2024-03-22T09:37:36;5.43;;;4.57;;
8042;SDS011;4064;48.132;11.366;2024-03-22T09:40:02;5.00;;;4.60;;
8042;SDS011;4064;48.132;11.366;2024-03-22T09:42:32;6.33;;;4.30;;
8042;SDS011;4064;48.132;11.366;2024-03-22T09:44:58;6.57;;;4.40;;
8042;SDS011;4064;48.132;11.366;2024-03-22T09:47:24;5.17;;;4.70;;
8042;SDS011;4064;48.132;11.366;2024-03-22T09:49:51;5.70;;;5.20;;
8042;SDS011;4064;48.132;11.366;2024-03-22T09:52:18;5.10;;;4.50;;
8042;SDS011;4064;48.132;11.366;2024-03-22T09:54:48;5.93;;;4.60;;
8042;SDS011;4064;48.132;11.366;2024-03-22T09:57:14;5.50;;;4.60;;
8042;SDS011;4064;48.132;11.366;2024-03-22T09:59:43;5.20;;;4.70;;
8042;SDS011;4064;48.132;11.366;2024-03-22T10:02:11;5.27;;;4.47;;
8042;SDS011;4064;48.132;11.366;2024-03-22T10:04:37;4.60;;;3.83;;
8042;SDS011;4064;48.132;11.366;2024-03-22T10:07:04;4.97;;;4.40;;
8042;SDS011;4064;48.132;11.366;2024-03-22T10:09:30;5.30;;;4.80;;
8042;SDS011;4064;48.132;11.366;2024-03-22T10:11:56;4.87;;;4.30;;
8042;SDS011;4064;48.132;11.366;2024-03-22T10:14:22;4.67;;;4.27;;
8042;SDS011;4064;48.132;11.366;2024-03-22T10:16:51;5.00;;;4.50;;
8042;SDS011;4064;48.132;11.366;2024-03-22T10:19:21;5.17;;;4.67;;
8042;SDS011;4064;48.132;11.366;2024-03-22T10:21:59;5.17;;;4.63;;
8042;SDS011;4064;48.132;11.366;2024-03-22T10:24:25;5.53;;;5.03;;
8042;SDS011;4064;48.132;11.366;2024-03-22T10:26:51;5.70;;;5.20;;
8042;SDS011;4064;48.132;11.366;2024-03-22T10:36:56;4.90;;;4.50;;
8042;SDS011;4064;48.132;11.366;2024-03-22T10:39:25;5.60;;;5.10;;
8042;SDS011;4064;48.132;11.366;2024-03-22T10:41:51;8.23;;;4.90;;
8042;SDS011;4064;48.132;11.366;2024-03-22T10:44:18;5.17;;;4.33;;
8042;SDS011;4064;48.132;11.366;2024-03-22T10:46:47;5.17;;;4.67;;
8042;SDS011;4064;48.132;11.366;2024-03-22T10:49:20;6.03;;;5.43;;
8042;SDS011;4064;48.132;11.366;2024-03-22T10:51:52;4.67;;;4.20;;
8042;SDS011;4064;48.132;11.366;2024-03-22T10:54:27;5.70;;;5.20;;
8042;SDS011;4064;48.132;11.366;2024-03-22T10:56:57;5.60;;;4.73;;
8042;SDS011;4064;48.132;11.366;2024-03-22T10:59:23;6.90;;;4.80;;
8042;SDS011;4064;48.132;11.366;2024-03-22T11:01:49;5.40;;;4.90;;
8042;SDS011;4064;48.132;11.366;2024-03-22T11:07:21;4.73;;;4.23;;
8042;SDS011;4064;48.132;11.366;2024-03-22T11:09:51;7.10;;;5.30;;
8042;SDS011;4064;48.132;11.366;2024-03-22T11:12:18;4.43;;;4.03;;
8042;SDS011;4064;48.132;11.366;2024-03-22T11:14:45;6.77;;;5.50;;
8042;SDS011;4064;48.132;11.366;2024-03-22T11:17:11;7.23;;;5.30;;
8042;SDS011;4064;48.132;11.366;2024-03-22T11:19:37;7.20;;;4.90;;
8042;SDS011;4064;48.132;11.366;2024-03-22T11:22:05;5.53;;;5.03;;
8042;SDS011;4064;48.132;11.366;2024-03-22T11:24:32;5.47;;;4.93;;
8042;SDS011;4064;48.132;11.366;2024-03-22T11:26:58;5.70;;;4.90;;
8042;SDS011;4064;48.132;11.366;2024-03-22T11:29:25;5.70;;;5.10;;
8042;SDS011;4064;48.132;11.366;2024-03-22T11:32:00;5.80;;;4.97;;
8042;SDS011;4064;48.132;11.366;2024-03-22T11:34:43;6.60;;;5.30;;
8042;SDS011;4064;48.132;11.366;2024-03-22T11:37:09;6.17;;;5.57;;
8042;SDS011;4064;48.132;11.366;2024-03-22T11:39:38;5.20;;;4.70;;
8042;SDS011;4064;48.132;11.366;2024-03-22T11:42:04;4.13;;;3.73;;
8042;SDS011;4064;48.132;11.366;2024-03-22T11:44:32;5.43;;;4.93;;
8042;SDS011;4064;48.132;11.366;2024-03-22T11:46:59;6.07;;;5.47;;
8042;SDS011;4064;48.132;11.366;2024-03-22T11:49:25;5.63;;;5.00;;
8042;SDS011;4064;48.132;11.366;2024-03-22T11:51:51;6.50;;;5.53;;
8042;SDS011;4064;48.132;11.366;2024-03-22T11:54:20;6.60;;;5.30;;
8042;SDS011;4064;48.132;11.366;2024-03-22T11:56:46;4.93;;;4.53;;
8042;SDS011;4064;48.132;11.366;2024-03-22T11:59:12;7.70;;;7.00;;
8042;SDS011;4064;48.132;11.366;2024-03-22T12:01:38;5.40;;;4.90;;
8042;SDS011;4064;48.132;11.366;2024-03-22T12:04:04;5.93;;;5.27;;
8042;SDS011;4064;48.132;11.366;2024-03-22T12:06:33;5.53;;;4.63;;
8042;SDS011;4064;48.132;11.366;2024-03-22T12:08:59;5.57;;;5.00;;
8042;SDS011;4064;48.132;11.366;2024-03-22T12:11:25;5.93;;;5.07;;
8042;SDS011;4064;48.132;11.366;2024-03-22T12:13:51;6.00;;;4.97;;
8042;SDS011;4064;48.132;11.366;2024-03-22T12:16:17;5.80;;;4.60;;
8042;SDS011;4064;48.132;11.366;2024-03-22T12:18:43;5.17;;;4.77;;
8042;SDS011;4064;48.132;11.366;2024-03-22T12:21:09;8.03;;;5.73;;
8042;SDS011;4064;48.132;11.366;2024-03-22T12:23:34;5.43;;;4.67;;
8042;SDS011;4064;48.132;11.366;2024-03-22T12:26:00;7.13;;;6.33;;
8042;SDS011;4064;48.132;11.366;2024-03-22T12:28:25;6.30;;;5.10;;
8042;SDS011;4064;48.132;11.366;2024-03-22T12:30:51;5.83;;;5.33;;
8042;SDS011;4064;48.132;11.366;2024-03-22T12:33:17;5.80;;;5.20;;
8042;SDS011;4064;48.132;11.366;2024-03-22T12:35:43;7.53;;;4.87;;
8042;SDS011;4064;48.132;11.366;2024-03-22T12:38:09;5.57;;;5.10;;
8042;SDS011;4064;48.132;11.366;2024-03-22T12:40:37;7.87;;;4.80;;
8042;SDS011;4064;48.132;11.366;2024-03-22T12:43:03;6.00;;;4.67;;
8042;SDS011;4064;48.132;11.366;2024-03-22T12:45:29;6.33;;;5.73;;
8042;SDS011;4064;48.132;11.366;2024-03-22T12:47:55;4.67;;;4.13;;
8042;SDS011;4064;48.132;11.366;2024-03-22T12:50:20;4.30;;;3.90;;
8042;SDS011;4064;48.132;11.366;2024-03-22T12:52:46;6.90;;;3.70;;
8042;SDS011;4064;48.132;11.366;2024-03-22T12:55:12;4.90;;;4.50;;
8042;SDS011;4064;48.132;11.366;2024-03-22T12:57:38;5.80;;;3.80;;
8042;SDS011;4064;48.132;11.366;2024-03-22T13:00:05;4.03;;;3.63;;
8042;SDS011;4064;48.132;11.366;2024-03-22T13:02:38;5.00;;;3.53;;
8042;SDS011;4064;48.132;11.366;2024-03-22T13:05:05;6.70;;;4.10;;
8042;SDS011;4064;48.132;11.366;2024-03-22T13:07:31;4.30;;;3.90;;
8042;SDS011;4064;48.132;11.366;2024-03-22T13:09:57;4.47;;;4.03;;
8042;SDS011;4064;48.132;11.366;2024-03-22T13:12:25;4.20;;;3.67;;
8042;SDS011;4064;48.132;11.366;2024-03-22T13:14:51;5.17;;;4.23;;
8042;SDS011;4064;48.132;11.366;2024-03-22T13:17:17;6.20;;;3.20;;
8042;SDS011;4064;48.132;11.366;2024-03-22T13:19:43;5.00;;;3.57;;
8042;SDS011;4064;48.132;11.366;2024-03-22T13:22:09;3.87;;;3.57;;
8042;SDS011;4064;48.132;11.366;2024-03-22T13:24:35;2.73;;;2.53;;
8042;SDS011;4064;48.132;11.366;2024-03-22T13:27:01;4.37;;;3.43;;
8042;SDS011;4064;48.132;11.366;2024-03-22T13:29:27;5.90;;;4.30;;
8042;SDS011;4064;48.132;11.366;2024-03-22T13:31:54;3.53;;;3.23;;
8042;SDS011;4064;48.132;11.366;2024-03-22T13:34:20;2.63;;;2.43;;
8042;SDS011;4064;48.132;11.366;2024-03-22T13:36:45;3.73;;;3.27;;
8042;SDS011;4064;48.132;11.366;2024-03-22T13:39:11;5.40;;;3.27;;
8042;SDS011;4064;48.132;11.366;2024-03-22T13:41:41;4.10;;;3.53;;
8042;SDS011;4064;48.132;11.366;2024-03-22T13:44:06;3.20;;;2.90;;
8042;SDS011;4064;48.132;11.366;2024-03-22T13:46:33;5.13;;;4.00;;
8042;SDS011;4064;48.132;11.366;2024-03-22T13:49:01;6.43;;;3.50;;
8042;SDS011;4064;48.132;11.366;2024-03-22T13:51:29;4.70;;;3.37;;
8042;SDS011;4064;48.132;11.366;2024-03-22T13:53:56;3.50;;;3.13;;
8042;SDS011;4064;48.132;11.366;2024-03-22T13:56:22;4.40;;;3.40;;
8042;SDS011;4064;48.132;11.366;2024-03-22T13:58:48;4.90;;;3.50;;
8042;SDS011;4064;48.132;11.366;2024-03-22T14:01:14;3.30;;;3.00;;
8042;SDS011;4064;48.132;11.366;2024-03-22T14:03:40;3.73;;;3.23;;
8042;SDS011;4064;48.132;11.366;2024-03-22T14:06:06;3.07;;;2.77;;
8042;SDS011;4064;48.132;11.366;2024-03-22T14:08:31;4.30;;;3.43;;
8042;SDS011;4064;48.132;11.366;2024-03-22T14:10:57;5.67;;;2.83;;
8042;SDS011;4064;48.132;11.366;2024-03-22T14:13:23;2.80;;;2.50;;
8042;SDS011;4064;48.132;11.366;2024-03-22T14:15:48;6.73;;;1.93;;
8042;SDS011;4064;48.132;11.366;2024-03-22T14:18:14;3.60;;;1.83;;
8042;SDS011;4064;48.132;11.366;2024-03-22T14:20:40;2.27;;;1.70;;
8042;SDS011;4064;48.132;11.366;2024-03-22T14:23:06;1.90;;;1.37;;
8042;SDS011;4064;48.132;11.366;2024-03-22T14:25:32;2.03;;;1.40;;
8042;SDS011;4064;48.132;11.366;2024-03-22T14:27:58;5.80;;;2.30;;
8042;SDS011;4064;48.132;11.366;2024-03-22T14:30:23;3.97;;;1.73;;
8042;SDS011;4064;48.132;11.366;2024-03-22T14:32:50;2.27;;;1.90;;
8042;SDS011;4064;48.132;11.366;2024-03-22T14:35:16;2.07;;;1.87;;
8042;SDS011;4064;48.132;11.366;2024-03-22T14:37:41;1.93;;;1.50;;
8042;SDS011;4064;48.132;11.366;2024-03-22T14:40:07;4.63;;;2.23;;
8042;SDS011;4064;48.132;11.366;2024-03-22T14:42:35;2.73;;;1.70;;
8042;SDS011;4064;48.132;11.366;2024-03-22T14:45:04;2.60;;;1.90;;
8042;SDS011;4064;48.132;11.366;2024-03-22T14:47:30;1.60;;;1.50;;
8042;SDS011;4064;48.132;11.366;2024-03-22T14:49:55;3.60;;;2.47;;
8042;SDS011;4064;48.132;11.366;2024-03-22T14:52:21;2.53;;;2.20;;